createdAt,value
2023-05-19T00:00:12.313Z,96988.09
2023-05-19T00:02:15.824Z,96991.03
2023-05-19T00:04:18.403Z,96988.28
2023-05-19T00:06:23.320Z,96991.69
2023-05-19T00:08:25.568Z,96995.81
2023-05-19T00:10:27.814Z,96977.72
2023-05-19T00:12:29.548Z,96987.09
2023-05-19T00:14:31.501Z,96980.75
2023-05-19T00:16:33.999Z,96977.44
2023-05-19T00:18:36.936Z,96981.56
2023-05-19T00:20:38.542Z,96979.72
2023-05-19T00:22:40.051Z,96978.06
2023-05-19T00:24:41.644Z,96974.22
2023-05-19T00:26:43.160Z,96971.28
2023-05-19T00:28:44.776Z,96982.88
2023-05-19T00:30:46.300Z,96985.25
2023-05-19T00:32:47.949Z,96979.94
2023-05-19T00:34:50.877Z,96983.16
2023-05-19T00:36:52.396Z,96981.66
2023-05-19T00:38:53.921Z,96982.31
2023-05-19T00:40:55.500Z,96978.72
2023-05-19T00:42:57.104Z,96977.34
2023-05-19T00:44:58.651Z,96974.97
2023-05-19T00:47:00.343Z,96980.47
2023-05-19T00:49:01.942Z,96965.22
2023-05-19T00:51:05.531Z,96961.66
2023-05-19T00:53:07.442Z,96973.63
2023-05-19T00:55:09.750Z,96934.13
2023-05-19T00:57:11.768Z,96982.75
2023-05-19T00:59:13.303Z,96975.75
2023-05-19T01:01:14.963Z,96973.75
2023-05-19T01:03:16.678Z,96967.38
2023-05-19T01:05:18.345Z,96964.75
2023-05-19T01:07:21.395Z,96969.06
2023-05-19T01:09:23.408Z,96968.50
2023-05-19T01:11:24.959Z,96969.13
2023-05-19T01:13:27.199Z,96957.56
2023-05-19T01:15:29.137Z,96973.91
2023-05-19T01:17:41.454Z,96964.78
2023-05-19T01:19:56.005Z,96968.28
2023-05-19T01:22:14.065Z,96931.19
2023-05-19T01:24:59.043Z,96976.53
2023-05-19T01:27:19.253Z,96981.38
2023-05-19T01:29:41.558Z,96982.69
2023-05-19T01:31:46.067Z,96990.97
2023-05-19T01:33:50.149Z,96977.72
2023-05-19T01:35:53.742Z,96981.38
2023-05-19T01:37:57.558Z,96949.53
2023-05-19T01:39:58.975Z,96979.38
2023-05-19T01:42:01.509Z,96974.41
2023-05-19T01:44:03.162Z,96983.50
2023-05-19T01:46:05.951Z,96981.50
2023-05-19T01:48:10.982Z,96987.34
2023-05-19T01:50:12.894Z,96975.69
2023-05-19T01:52:14.409Z,96969.06
2023-05-19T01:54:15.958Z,96970.72
2023-05-19T01:56:25.182Z,96969.44
2023-05-19T01:58:33.484Z,96972.16
2023-05-19T02:00:51.238Z,96979.72
2023-05-19T02:03:05.019Z,96951.84
2023-05-19T02:05:13.514Z,96972.44
2023-05-19T02:07:24.722Z,96963.03
2023-05-19T02:09:37.657Z,96972.88
2023-05-19T02:11:43.094Z,96967.72
2023-05-19T02:13:48.076Z,96972.34
2023-05-19T02:15:52.135Z,96968.22
2023-05-19T02:17:55.827Z,96965.28
2023-05-19T02:19:57.378Z,96967.66
2023-05-19T02:22:00.296Z,96971.97
2023-05-19T02:24:01.854Z,96970.38
2023-05-19T02:26:03.543Z,96974.97
2023-05-19T02:28:05.288Z,96984.34
2023-05-19T02:30:08.692Z,96981.75
2023-05-19T02:32:10.900Z,96983.41
2023-05-19T02:34:12.664Z,96976.84
2023-05-19T02:36:14.219Z,96979.38
2023-05-19T02:38:17.113Z,96986.00
2023-05-19T02:40:18.886Z,96987.00
2023-05-19T02:42:20.878Z,96979.38
2023-05-19T02:44:22.398Z,96976.41
2023-05-19T02:46:24.180Z,96974.75
2023-05-19T02:48:25.788Z,96964.09
2023-05-19T02:50:27.378Z,96969.50
2023-05-19T02:52:28.926Z,96963.81
2023-05-19T02:54:32.540Z,96965.75
2023-05-19T02:56:34.176Z,96955.47
2023-05-19T02:58:35.711Z,96956.16
2023-05-19T03:00:37.244Z,96965.53
2023-05-19T03:02:38.859Z,96957.00
2023-05-19T03:04:40.434Z,96958.19
2023-05-19T03:06:41.946Z,96955.81
2023-05-19T03:08:43.527Z,96944.59
2023-05-19T03:10:47.315Z,96953.56
2023-05-19T03:12:48.686Z,96955.88
2023-05-19T03:14:50.326Z,96960.22
2023-05-19T03:16:51.992Z,96958.28
2023-05-19T03:18:53.660Z,96968.41
2023-05-19T03:20:55.268Z,96952.25
2023-05-19T03:22:58.230Z,96961.03
2023-05-19T03:24:59.724Z,96954.69
2023-05-19T03:27:02.626Z,96963.50
2023-05-19T03:29:04.157Z,96957.56
2023-05-19T03:31:05.770Z,96959.91
2023-05-19T03:33:07.532Z,96949.25
2023-05-19T03:35:09.601Z,96963.72
2023-05-19T03:37:11.120Z,96961.84
2023-05-19T03:39:12.738Z,96967.38
2023-05-19T03:41:14.305Z,96957.75
2023-05-19T03:43:17.178Z,96970.59
2023-05-19T03:45:18.736Z,96962.25
2023-05-19T03:47:20.269Z,96959.19
2023-05-19T03:49:21.800Z,96955.34
2023-05-19T03:51:23.382Z,96956.88
2023-05-19T03:53:24.909Z,96967.03
2023-05-19T03:55:26.973Z,96963.91
2023-05-19T03:57:28.526Z,96978.53
2023-05-19T03:59:31.638Z,96971.72
2023-05-19T04:01:33.218Z,96963.22
2023-05-19T04:03:34.776Z,96958.09
2023-05-19T04:05:36.375Z,96970.59
2023-05-19T04:07:38.072Z,96965.78
2023-05-19T04:09:39.620Z,96968.22
2023-05-19T04:11:41.516Z,96969.41
2023-05-19T04:13:44.512Z,96963.97
2023-05-19T04:15:48.128Z,96974.88
2023-05-19T04:17:49.701Z,96970.38
2023-05-19T04:19:51.281Z,96967.75
2023-05-19T04:21:52.805Z,96967.28
2023-05-19T04:23:54.360Z,96966.22
2023-05-19T04:25:55.932Z,96970.06
2023-05-19T04:27:57.464Z,96969.94
2023-05-19T04:29:58.988Z,96978.63
2023-05-19T04:32:01.886Z,96973.31
2023-05-19T04:34:03.417Z,96976.13
2023-05-19T04:36:05.486Z,96967.63
2023-05-19T04:38:07.058Z,96978.63
2023-05-19T04:40:09.626Z,96968.81
2023-05-19T04:42:11.308Z,96971.66
2023-05-19T04:44:12.842Z,96967.63
2023-05-19T04:46:14.511Z,96969.88
2023-05-19T04:48:17.625Z,96967.28
2023-05-19T04:50:19.147Z,96976.97
2023-05-19T04:52:21.845Z,96976.00
2023-05-19T04:54:23.454Z,96973.19
2023-05-19T04:56:25.044Z,96967.25
2023-05-19T04:58:26.592Z,96968.81
2023-05-19T05:00:28.147Z,96965.06
2023-05-19T05:02:29.716Z,96971.88
2023-05-19T05:04:32.684Z,96968.47
2023-05-19T05:06:34.274Z,96970.50
2023-05-19T05:08:36.672Z,96981.59
2023-05-19T05:10:38.215Z,96972.34
2023-05-19T05:12:40.314Z,96978.03
2023-05-19T05:14:42.454Z,96973.06
2023-05-19T05:16:44.824Z,96972.25
2023-05-19T05:18:46.998Z,96982.69
2023-05-19T05:20:50.526Z,96977.09
2023-05-19T05:22:52.613Z,96975.72
2023-05-19T05:24:54.726Z,96977.22
2023-05-19T05:26:56.266Z,96971.47
2023-05-19T05:28:57.801Z,96977.41
2023-05-19T05:30:59.344Z,96978.56
2023-05-19T05:33:01.591Z,96980.16
2023-05-19T05:35:03.523Z,96979.94
2023-05-19T05:37:06.502Z,96980.84
2023-05-19T05:39:08.008Z,96962.06
2023-05-19T05:41:09.580Z,96980.53
2023-05-19T05:43:11.089Z,96981.84
2023-05-19T05:45:12.679Z,96978.19
2023-05-19T05:47:14.886Z,96980.50
2023-05-19T05:49:17.145Z,96979.78
2023-05-19T05:51:21.489Z,96975.47
2023-05-19T05:53:25.866Z,96983.97
2023-05-19T05:55:28.179Z,96981.34
2023-05-19T05:57:29.756Z,96982.84
2023-05-19T05:59:31.269Z,96970.50
2023-05-19T06:01:34.296Z,96981.69
2023-05-19T06:03:38.780Z,96990.34
2023-05-19T06:05:40.427Z,96987.72
2023-05-19T06:07:42.329Z,96986.25
2023-05-19T06:09:45.296Z,96987.97
2023-05-19T06:11:46.817Z,96987.47
2023-05-19T06:13:48.414Z,96983.59
2023-05-19T06:15:50.926Z,96978.84
2023-05-19T06:17:52.491Z,96972.34
2023-05-19T06:19:54.122Z,96972.97
2023-05-19T06:21:55.665Z,96973.63
2023-05-19T06:23:57.219Z,96973.09
2023-05-19T06:26:00.163Z,96980.47
2023-05-19T06:28:01.749Z,96973.13
2023-05-19T06:30:03.683Z,96974.50
2023-05-19T06:32:05.277Z,96970.72
2023-05-19T06:34:06.808Z,96966.31
2023-05-19T06:36:08.537Z,96933.75
2023-05-19T06:38:10.181Z,96966.59
2023-05-19T06:40:12.826Z,96964.28
2023-05-19T06:42:15.699Z,96972.19
2023-05-19T06:44:17.912Z,96977.06
2023-05-19T06:46:20.921Z,96963.09
2023-05-19T06:48:22.457Z,96974.69
2023-05-19T06:50:24.050Z,96963.91
2023-05-19T06:52:25.624Z,96961.25
2023-05-19T06:54:27.138Z,96971.81
2023-05-19T06:56:28.737Z,96962.72
2023-05-19T06:58:31.736Z,96971.47
2023-05-19T07:00:33.529Z,96969.97
2023-05-19T07:02:35.349Z,96966.19
2023-05-19T07:04:36.943Z,96970.50
2023-05-19T07:06:38.471Z,96974.91
2023-05-19T07:08:40.032Z,96972.16
2023-05-19T07:10:42.074Z,96970.78
2023-05-19T07:12:43.920Z,96978.50
2023-05-19T07:14:46.814Z,96970.31
2023-05-19T07:16:48.326Z,96968.06
2023-05-19T07:18:49.911Z,96974.31
2023-05-19T07:20:52.254Z,96959.81
2023-05-19T07:22:53.781Z,96966.94
2023-05-19T07:24:55.343Z,96975.06
2023-05-19T07:26:57.428Z,96969.50
2023-05-19T07:28:59.041Z,96971.69
2023-05-19T07:31:01.905Z,96978.34
2023-05-19T07:33:03.642Z,96967.84
2023-05-19T07:35:06.666Z,96968.28
2023-05-19T07:37:08.219Z,96962.06
2023-05-19T07:39:09.773Z,96962.84
2023-05-19T07:41:11.294Z,96956.13
2023-05-19T07:43:12.919Z,96966.53
2023-05-19T07:45:14.479Z,96962.53
2023-05-19T07:47:17.380Z,96969.09
2023-05-19T07:49:18.987Z,96954.84
2023-05-19T07:51:20.513Z,96966.03
2023-05-19T07:53:22.224Z,96960.63
2023-05-19T07:55:23.819Z,96965.50
2023-05-19T07:57:25.344Z,96955.22
2023-05-19T07:59:26.917Z,96957.53
2023-05-19T08:01:29.722Z,96952.28
2023-05-19T08:03:32.765Z,96940.84
2023-05-19T08:05:34.680Z,96944.38
2023-05-19T08:07:36.525Z,96955.72
2023-05-19T08:09:38.046Z,96952.94
2023-05-19T08:11:39.678Z,96916.19
2023-05-19T08:13:41.182Z,96952.56
2023-05-19T08:15:42.917Z,96945.69
2023-05-19T08:17:44.586Z,96946.69
2023-05-19T08:19:47.504Z,96944.97
2023-05-19T08:21:49.133Z,96947.00
2023-05-19T08:23:50.641Z,96949.13
2023-05-19T08:25:52.221Z,96946.72
2023-05-19T08:27:53.801Z,96942.84
2023-05-19T08:29:55.335Z,96937.78
2023-05-19T08:31:57.049Z,96941.88
2023-05-19T08:33:58.646Z,96937.47
2023-05-19T08:36:01.571Z,96945.63
2023-05-19T08:38:03.130Z,96923.47
2023-05-19T08:40:05.470Z,96934.94
2023-05-19T08:42:07.340Z,96936.34
2023-05-19T08:44:09.122Z,96942.03
2023-05-19T08:46:13.452Z,96933.53
2023-05-19T08:48:17.186Z,96934.34
2023-05-19T08:50:24.124Z,96924.81
2023-05-19T08:52:32.909Z,96932.25
2023-05-19T08:54:41.252Z,96928.75
2023-05-19T08:56:43.690Z,96927.13
2023-05-19T08:58:45.889Z,96931.81
2023-05-19T09:00:48.555Z,96927.44
2023-05-19T09:03:00.855Z,96925.78
2023-05-19T09:05:08.962Z,96925.88
2023-05-19T09:07:10.820Z,96927.00
2023-05-19T09:09:13.745Z,96914.16
2023-05-19T09:11:15.295Z,96923.03
2023-05-19T09:13:16.845Z,96919.63
2023-05-19T09:15:18.713Z,96922.41
2023-05-19T09:17:20.373Z,96917.56
2023-05-19T09:19:22.044Z,96922.19
2023-05-19T09:21:28.048Z,96926.47
2023-05-19T09:23:30.741Z,96926.69
2023-05-19T09:25:34.279Z,96916.94
2023-05-19T09:27:36.139Z,96929.25
2023-05-19T09:29:37.738Z,96932.31
2023-05-19T09:31:39.526Z,96918.41
2023-05-19T09:33:45.238Z,96923.38
2023-05-19T09:35:47.639Z,96915.88
2023-05-19T09:37:49.129Z,96912.88
2023-05-19T09:39:50.790Z,96927.84
2023-05-19T09:41:54.152Z,96913.84
2023-05-19T09:43:55.684Z,96910.66
2023-05-19T09:45:59.888Z,96920.69
2023-05-19T09:48:03.951Z,96917.16
2023-05-19T09:50:07.131Z,96919.53
2023-05-19T09:52:09.437Z,96905.72
2023-05-19T09:54:15.042Z,96922.09
2023-05-19T09:56:16.813Z,96908.34
2023-05-19T09:58:19.883Z,96908.56
2023-05-19T10:00:22.590Z,96906.69
2023-05-19T10:02:25.802Z,96907.56
2023-05-19T10:04:28.824Z,96910.81
2023-05-19T10:06:34.910Z,96918.00
2023-05-19T10:08:37.530Z,96918.00
2023-05-19T10:10:39.106Z,96916.94
2023-05-19T10:12:41.216Z,96920.94
2023-05-19T10:14:44.125Z,96912.34
2023-05-19T10:16:45.953Z,96913.63
2023-05-19T10:18:49.756Z,96912.53
2023-05-19T10:20:52.064Z,96908.22
2023-05-19T10:22:53.710Z,96915.56
2023-05-19T10:24:55.285Z,96929.88
2023-05-19T10:27:03.322Z,96920.84
2023-05-19T10:29:05.548Z,96904.91
2023-05-19T10:31:12.017Z,96910.66
2023-05-19T10:33:16.164Z,96903.69
2023-05-19T10:35:40.379Z,96911.19
2023-05-19T10:37:46.173Z,96907.78
2023-05-19T10:39:50.859Z,96913.38
2023-05-19T10:42:03.730Z,96901.09
2023-05-19T10:44:13.416Z,96900.16
2023-05-19T10:46:16.404Z,96896.84
2023-05-19T10:48:20.093Z,96905.28
2023-05-19T10:50:21.734Z,96906.97
2023-05-19T10:52:24.143Z,96906.91
2023-05-19T10:54:41.772Z,96903.44
2023-05-19T10:56:44.354Z,96906.59
2023-05-19T10:58:50.179Z,96907.50
2023-05-19T11:01:00.271Z,96912.38
2023-05-19T11:03:16.067Z,96917.19
2023-05-19T11:05:17.649Z,96913.84
2023-05-19T11:07:20.715Z,96902.31
2023-05-19T11:09:34.093Z,96910.63
2023-05-19T11:11:45.979Z,96908.84
2023-05-19T11:13:48.045Z,96918.22
2023-05-19T11:15:49.695Z,96906.69
2023-05-19T11:17:52.929Z,96909.34
2023-05-19T11:19:57.655Z,96920.06
2023-05-19T11:22:08.995Z,96914.22
2023-05-19T11:24:10.580Z,96904.78
2023-05-19T11:26:13.236Z,96909.03
2023-05-19T11:28:16.321Z,96898.34
2023-05-19T11:30:18.001Z,96907.00
2023-05-19T11:32:21.015Z,96915.53
2023-05-19T11:34:23.143Z,96908.94
2023-05-19T11:36:26.969Z,96902.44
2023-05-19T11:38:28.927Z,96903.94
2023-05-19T11:40:30.743Z,96902.88
2023-05-19T11:42:32.811Z,96905.34
2023-05-19T11:44:34.381Z,96903.28
2023-05-19T11:46:36.022Z,96903.84
2023-05-19T11:48:37.694Z,96905.75
2023-05-19T11:50:41.396Z,96895.75
2023-05-19T11:52:45.498Z,96899.00
2023-05-19T11:54:48.345Z,96890.84
2023-05-19T11:56:49.947Z,96901.19
2023-05-19T11:58:53.151Z,96899.13
2023-05-19T12:00:54.730Z,96894.53
2023-05-19T12:02:56.790Z,96884.09
2023-05-19T12:04:58.451Z,96906.72
2023-05-19T12:07:00.069Z,96885.75
2023-05-19T12:09:05.486Z,96898.78
2023-05-19T12:11:07.144Z,96893.66
2023-05-19T12:13:08.743Z,96901.09
2023-05-19T12:15:11.388Z,96901.88
2023-05-19T12:17:13.948Z,96901.88
2023-05-19T12:19:15.627Z,96901.88
2023-05-19T12:21:17.372Z,96910.00
2023-05-19T12:23:19.344Z,96907.19
2023-05-19T12:25:22.592Z,96907.78
2023-05-19T12:27:24.882Z,96912.88
2023-05-19T12:29:28.146Z,96881.59
2023-05-19T12:31:29.740Z,96871.53
2023-05-19T12:33:33.605Z,96903.53
2023-05-19T12:35:37.689Z,96889.94
2023-05-19T12:37:41.949Z,96909.13
2023-05-19T12:39:44.184Z,96905.59
2023-05-19T12:41:47.064Z,96907.22
2023-05-19T12:43:48.682Z,96912.06
2023-05-19T12:45:50.441Z,96912.50
2023-05-19T12:47:52.030Z,96906.31
2023-05-19T12:49:54.551Z,96911.72
2023-05-19T12:51:56.068Z,96919.50
2023-05-19T12:53:57.741Z,96918.38
2023-05-19T12:55:59.330Z,96919.59
2023-05-19T12:58:07.170Z,96908.50
2023-05-19T13:00:14.309Z,96913.84
2023-05-19T13:02:16.067Z,96917.34
2023-05-19T13:04:17.911Z,96927.25
2023-05-19T13:06:19.564Z,96922.16
2023-05-19T13:08:22.455Z,96910.88
2023-05-19T13:10:24.311Z,96910.53
2023-05-19T13:12:25.874Z,96895.59
2023-05-19T13:14:28.767Z,96907.28
2023-05-19T13:16:30.353Z,96897.63
2023-05-19T13:18:31.933Z,96899.00
2023-05-19T13:20:33.811Z,96890.75
2023-05-19T13:22:35.479Z,96893.97
2023-05-19T13:24:37.001Z,96890.28
2023-05-19T13:26:38.523Z,96898.06
2023-05-19T13:28:40.078Z,96891.63
2023-05-19T13:30:43.801Z,96890.63
2023-05-19T13:32:45.525Z,96887.50
2023-05-19T13:34:47.219Z,96881.59
2023-05-19T13:36:48.766Z,96883.16
2023-05-19T13:38:50.322Z,96882.78
2023-05-19T13:40:52.022Z,96884.19
2023-05-19T13:42:53.591Z,96880.81
2023-05-19T13:44:55.766Z,96876.94
2023-05-19T13:46:58.687Z,96875.56
2023-05-19T13:49:00.262Z,96882.94
2023-05-19T13:51:01.790Z,96883.88
2023-05-19T13:53:03.607Z,96880.81
2023-05-19T13:55:06.453Z,96883.47
2023-05-19T13:57:08.299Z,96875.94
2023-05-19T13:59:09.885Z,96883.72
2023-05-19T14:01:11.420Z,96880.38
2023-05-19T14:03:14.518Z,96871.72
2023-05-19T14:05:16.244Z,96877.00
2023-05-19T14:07:17.830Z,96868.47
2023-05-19T14:09:19.326Z,96861.50
2023-05-19T14:11:21.280Z,96860.63
2023-05-19T14:13:31.337Z,96867.59
2023-05-19T14:15:34.608Z,96861.69
2023-05-19T14:17:36.263Z,96860.88
2023-05-19T14:19:39.243Z,96856.31
2023-05-19T14:21:40.760Z,96862.31
2023-05-19T14:23:42.404Z,96853.25
2023-05-19T14:25:43.947Z,96853.69
2023-05-19T14:27:45.529Z,96854.06
2023-05-19T14:29:47.124Z,96853.28
2023-05-19T14:31:49.163Z,96855.72
2023-05-19T14:33:51.180Z,96854.94
2023-05-19T14:35:54.196Z,96856.97
2023-05-19T14:37:55.748Z,96864.91
2023-05-19T14:39:57.298Z,96861.22
2023-05-19T14:41:58.859Z,96861.47
2023-05-19T14:44:00.476Z,96870.78
2023-05-19T14:46:02.042Z,96824.97
2023-05-19T14:48:03.945Z,96842.72
2023-05-19T14:50:06.360Z,96864.78
2023-05-19T14:52:09.253Z,96860.97
2023-05-19T14:54:10.759Z,96845.63
2023-05-19T14:56:12.302Z,96846.50
2023-05-19T14:58:27.554Z,96863.66
2023-05-19T15:00:30.878Z,96831.22
2023-05-19T15:02:32.493Z,96866.75
2023-05-19T15:04:34.028Z,96858.53
2023-05-19T15:06:35.572Z,96844.13
2023-05-19T15:08:38.728Z,96847.84
2023-05-19T15:10:40.228Z,96853.19
2023-05-19T15:12:41.881Z,96850.72
2023-05-19T15:14:43.428Z,96839.97
2023-05-19T15:16:44.993Z,96847.38
2023-05-19T15:18:46.609Z,96851.06
2023-05-19T15:20:48.562Z,96848.53
2023-05-19T15:22:50.141Z,96846.91
2023-05-19T15:24:53.064Z,96842.75
2023-05-19T15:26:55.362Z,96844.41
2023-05-19T15:28:56.902Z,96843.16
2023-05-19T15:30:58.454Z,96846.03
2023-05-19T15:33:00.118Z,96843.78
2023-05-19T15:35:01.680Z,96837.00
2023-05-19T15:37:03.488Z,96845.19
2023-05-19T15:39:05.120Z,96838.25
2023-05-19T15:41:09.205Z,96834.56
2023-05-19T15:43:10.714Z,96790.41
2023-05-19T15:45:12.231Z,96834.31
2023-05-19T15:47:13.820Z,96835.56
2023-05-19T15:49:15.364Z,96818.06
2023-05-19T15:51:17.166Z,96836.94
2023-05-19T15:53:18.721Z,96837.38
2023-05-19T15:55:20.428Z,96834.47
2023-05-19T15:57:23.459Z,96819.19
2023-05-19T15:59:24.973Z,96829.75
2023-05-19T16:01:26.671Z,96821.56
2023-05-19T16:03:28.538Z,96833.72
2023-05-19T16:05:30.141Z,96814.34
2023-05-19T16:07:31.662Z,96815.19
2023-05-19T16:09:33.358Z,96820.16
2023-05-19T16:11:34.853Z,96813.16
2023-05-19T16:13:37.841Z,96816.50
2023-05-19T16:15:39.425Z,96818.56
2023-05-19T16:17:41.038Z,96807.06
2023-05-19T16:19:42.594Z,96805.41
2023-05-19T16:21:44.144Z,96802.94
2023-05-19T16:23:45.672Z,96806.03
2023-05-19T16:25:47.672Z,96802.16
2023-05-19T16:27:49.282Z,96795.97
2023-05-19T16:29:52.168Z,96797.22
2023-05-19T16:31:53.840Z,96799.06
2023-05-19T16:33:55.416Z,96797.22
2023-05-19T16:35:58.114Z,96813.28
2023-05-19T16:37:59.707Z,96809.16
2023-05-19T16:40:01.455Z,96806.28
2023-05-19T16:42:03.190Z,96795.38
2023-05-19T16:44:05.063Z,96790.19
2023-05-19T16:46:07.983Z,96799.09
2023-05-19T16:48:09.676Z,96789.81
2023-05-19T16:50:11.661Z,96785.75
2023-05-19T16:52:13.192Z,96782.47
2023-05-19T16:54:14.741Z,96789.88
2023-05-19T16:56:16.249Z,96799.78
2023-05-19T16:58:17.765Z,96791.31
2023-05-19T17:00:19.817Z,96802.22
2023-05-19T17:02:22.838Z,96799.31
2023-05-19T17:04:24.470Z,96807.16
2023-05-19T17:06:26.076Z,96793.56
2023-05-19T17:08:27.608Z,96784.94
2023-05-19T17:10:29.116Z,96788.63
2023-05-19T17:12:30.635Z,96788.22
2023-05-19T17:14:32.160Z,96794.41
2023-05-19T17:16:33.940Z,96774.63
2023-05-19T17:18:36.860Z,96775.88
2023-05-19T17:20:38.376Z,96780.41
2023-05-19T17:22:39.926Z,96782.47
2023-05-19T17:24:41.520Z,96778.75
2023-05-19T17:26:43.097Z,96783.09
2023-05-19T17:28:44.863Z,96778.75
2023-05-19T17:30:46.572Z,96782.47
2023-05-19T17:32:48.147Z,96780.81
2023-05-19T17:34:51.128Z,96782.66
2023-05-19T17:36:52.661Z,96787.41
2023-05-19T17:38:54.474Z,96778.75
2023-05-19T17:40:57.617Z,96783.28
2023-05-19T17:42:59.184Z,96779.16
2023-05-19T17:45:00.682Z,96778.91
2023-05-19T17:47:02.201Z,96778.72
2023-05-19T17:49:03.716Z,96769.25
2023-05-19T17:51:06.605Z,96772.13
2023-05-19T17:53:08.634Z,96776.69
2023-05-19T17:55:11.981Z,96779.78
2023-05-19T17:57:16.143Z,96774.03
2023-05-19T17:59:18.209Z,96768.06
2023-05-19T18:01:20.214Z,96777.88
2023-05-19T18:03:22.507Z,96758.53
2023-05-19T18:05:24.812Z,96777.72
2023-05-19T18:07:28.007Z,96759.34
2023-05-19T18:09:30.533Z,96771.28
2023-05-19T18:11:32.071Z,96770.44
2023-05-19T18:13:33.679Z,96772.50
2023-05-19T18:15:35.367Z,96770.63
2023-05-19T18:17:37.081Z,96768.56
2023-05-19T18:19:38.619Z,96765.84
2023-05-19T18:21:40.166Z,96748.91
2023-05-19T18:23:43.341Z,96771.16
2023-05-19T18:25:48.999Z,96771.53
2023-05-19T18:27:50.596Z,96766.41
2023-05-19T18:29:52.132Z,96766.19
2023-05-19T18:31:53.735Z,96740.22
2023-05-19T18:33:55.278Z,96765.34
2023-05-19T18:35:57.055Z,96764.72
2023-05-19T18:37:58.704Z,96769.25
2023-05-19T18:40:01.616Z,96763.47
2023-05-19T18:42:03.210Z,96767.56
2023-05-19T18:44:04.914Z,96764.66
2023-05-19T18:46:06.570Z,96752.53
2023-05-19T18:48:08.223Z,96762.38
2023-05-19T18:50:10.350Z,96754.13
2023-05-19T18:52:12.903Z,96764.91
2023-05-19T18:54:14.416Z,96764.91
2023-05-19T18:56:24.303Z,96759.94
2023-05-19T18:58:25.841Z,96758.22
2023-05-19T19:00:35.015Z,96743.75
2023-05-19T19:02:37.888Z,96762.88
2023-05-19T19:04:39.734Z,96757.53
2023-05-19T19:06:41.964Z,96759.78
2023-05-19T19:08:44.183Z,96763.91
2023-05-19T19:10:45.750Z,96762.66
2023-05-19T19:12:48.700Z,96765.44
2023-05-19T19:14:50.203Z,96763.16
2023-05-19T19:16:51.755Z,96767.50
2023-05-19T19:18:53.459Z,96769.97
2023-05-19T19:20:55.066Z,96771.13
2023-05-19T19:22:56.606Z,96764.84
2023-05-19T19:24:58.153Z,96783.41
2023-05-19T19:26:59.713Z,96782.53
2023-05-19T19:29:02.614Z,96786.41
2023-05-19T19:31:04.166Z,96783.31
2023-05-19T19:33:06.861Z,96780.78
2023-05-19T19:35:09.370Z,96781.53
2023-05-19T19:37:10.937Z,96791.97
2023-05-19T19:39:12.498Z,96769.09
2023-05-19T19:41:14.039Z,96783.97
2023-05-19T19:43:15.552Z,96777.38
2023-05-19T19:45:18.589Z,96781.06
2023-05-19T19:47:20.130Z,96779.78
2023-05-19T19:49:21.721Z,96783.03
2023-05-19T19:51:23.255Z,96780.94
2023-05-19T19:53:24.823Z,96776.34
2023-05-19T19:55:26.415Z,96773.66
2023-05-19T19:57:28.020Z,96776.72
2023-05-19T19:59:30.577Z,96776.66
2023-05-19T20:01:33.752Z,96789.41
2023-05-19T20:03:35.662Z,96779.50
2023-05-19T20:05:37.429Z,96782.75
2023-05-19T20:07:38.934Z,96774.09
2023-05-19T20:09:40.503Z,96784.22
2023-05-19T20:11:42.082Z,96773.28
2023-05-19T20:13:43.598Z,96782.31
2023-05-19T20:15:46.589Z,96792.16
2023-05-19T20:17:49.554Z,96761.22
2023-05-19T20:19:51.124Z,96781.41
2023-05-19T20:21:52.665Z,96782.16
2023-05-19T20:23:54.204Z,96784.38
2023-05-19T20:26:11.143Z,96779.34
2023-05-19T20:28:13.825Z,96783.03
2023-05-19T20:30:15.334Z,96762.28
2023-05-19T20:32:16.895Z,96777.34
2023-05-19T20:34:19.812Z,96774.28
2023-05-19T20:36:21.375Z,96777.16
2023-05-19T20:38:22.911Z,96773.47
2023-05-19T20:40:24.521Z,96768.31
2023-05-19T20:42:26.085Z,96775.31
2023-05-19T20:44:27.641Z,96778.72
2023-05-19T20:46:29.345Z,96770.72
2023-05-19T20:48:31.010Z,96759.00
2023-05-19T20:50:34.133Z,96755.22
2023-05-19T20:52:35.905Z,96758.72
2023-05-19T20:54:37.450Z,96759.34
2023-05-19T20:56:38.984Z,96764.78
2023-05-19T20:58:40.534Z,96760.75
2023-05-19T21:00:42.067Z,96758.38
2023-05-19T21:02:43.678Z,96745.38
2023-05-19T21:04:45.315Z,96742.09
2023-05-19T21:06:48.256Z,96761.94
2023-05-19T21:08:50.065Z,96762.75
2023-05-19T21:10:51.707Z,96757.88
2023-05-19T21:12:53.243Z,96758.91
2023-05-19T21:14:54.815Z,96756.88
2023-05-19T21:16:56.645Z,96750.19
2023-05-19T21:18:58.298Z,96746.31
2023-05-19T21:21:02.095Z,96743.34
2023-05-19T21:23:04.971Z,96736.56
2023-05-19T21:25:07.120Z,96744.38
2023-05-19T21:27:08.669Z,96748.06
2023-05-19T21:29:10.514Z,96747.34
2023-05-19T21:31:12.092Z,96745.31
2023-05-19T21:33:13.748Z,96747.78
2023-05-19T21:35:15.531Z,96745.31
2023-05-19T21:37:17.065Z,96722.69
2023-05-19T21:39:20.022Z,96723.34
2023-05-19T21:41:21.559Z,96711.00
2023-05-19T21:43:23.110Z,96743.28
2023-05-19T21:45:24.682Z,96738.13
2023-05-19T21:47:26.291Z,96736.66
2023-05-19T21:49:27.858Z,96727.22
2023-05-19T21:51:29.433Z,96727.81
2023-05-19T21:53:31.004Z,96728.31
2023-05-19T21:55:34.451Z,96721.78
2023-05-19T21:57:35.980Z,96718.19
2023-05-19T21:59:37.722Z,96716.06
2023-05-19T22:01:39.307Z,96711.09
2023-05-19T22:03:41.045Z,96711.84
2023-05-19T22:05:42.787Z,96715.06
2023-05-19T22:07:44.304Z,96720.56
2023-05-19T22:09:46.962Z,96714.97
2023-05-19T22:11:51.877Z,96709.66
2023-05-19T22:13:53.457Z,96716.38
2023-05-19T22:15:55.208Z,96710.41
2023-05-19T22:17:57.456Z,96713.69
2023-05-19T22:19:59.077Z,96715.72
2023-05-19T22:22:12.597Z,96716.75
2023-05-19T22:24:15.499Z,96715.47
2023-05-19T22:26:17.053Z,96713.16
2023-05-19T22:28:19.955Z,96673.53
2023-05-19T22:30:21.974Z,96710.59
2023-05-19T22:32:23.507Z,96708.13
2023-05-19T22:34:25.226Z,96705.13
2023-05-19T22:36:26.833Z,96693.06
2023-05-19T22:38:28.371Z,96682.16
2023-05-19T22:40:29.896Z,96701.06
2023-05-19T22:42:31.430Z,96707.94
2023-05-19T22:44:34.351Z,96696.72
2023-05-19T22:46:36.025Z,96694.53
2023-05-19T22:48:37.588Z,96691.28
2023-05-19T22:50:39.110Z,96692.41
2023-05-19T22:52:40.656Z,96690.94
2023-05-19T22:54:42.394Z,96677.38
2023-05-19T22:56:45.222Z,96684.63
2023-05-19T22:58:47.836Z,96686.81
2023-05-19T23:00:50.776Z,96681.13
2023-05-19T23:02:52.418Z,96680.28
2023-05-19T23:04:54.033Z,96681.50
2023-05-19T23:06:55.550Z,96687.66
2023-05-19T23:09:01.140Z,96654.63
2023-05-19T23:11:02.727Z,96687.84
2023-05-19T23:13:04.338Z,96685.63
2023-05-19T23:15:07.094Z,96688.28
2023-05-19T23:17:10.035Z,96687.00
2023-05-19T23:19:11.748Z,96688.03
2023-05-19T23:21:13.365Z,96683.44
2023-05-19T23:23:14.905Z,96671.78
2023-05-19T23:25:16.583Z,96674.81
2023-05-19T23:27:18.267Z,96670.75
2023-05-19T23:29:19.882Z,96664.16
2023-05-19T23:31:21.470Z,96668.19
2023-05-19T23:33:24.560Z,96659.94
2023-05-19T23:35:26.171Z,96670.50
2023-05-19T23:37:27.704Z,96667.81
2023-05-19T23:39:29.256Z,96667.00
2023-05-19T23:41:30.844Z,96668.56
2023-05-19T23:43:32.603Z,96662.59
2023-05-19T23:45:34.502Z,96651.38
2023-05-19T23:47:36.337Z,96661.97
2023-05-19T23:49:39.271Z,96667.66
2023-05-19T23:51:40.913Z,96666.84
2023-05-19T23:53:42.477Z,96659.03
2023-05-19T23:55:44.750Z,96656.00
2023-05-19T23:57:46.284Z,96648.72
2023-05-19T23:59:47.825Z,96661.03
